Nearby METAR Reports

 

KTEB - Teterboro, New Jersey, USA
Distance from station: ENE 2mi, 4km
Updated: 05/29/2020 6:51pm
Few Clouds
Few Clouds
 Wind from S
Wind: S 10 mph , 17 km/h
Temperature: 81°F , 27°C
Heat Index: 85°F , 29°C
Dew Point: 70°F , 21°C
Humidity: 70%
Barometer: 29.86 inHg , 1011.2 hPa
Clouds: Few Clouds
Visibility: 10 miles , 16 km
Cloud details: Few Clouds 4700 ft
2020/05/29 22:51 KTEB 292251Z 19009KT 10SM FEW047 27/21 A2986 RMK AO2 SLP109 T02670211
KNYC - Nyc/Central Park, New York, USA
Distance from station: SE 8mi, 13km
Updated: 05/29/2020 6:51pm
Few Clouds
Few Clouds
 
Temperature: 79°F , 26°C
Dew Point: 66°F , 19°C
Humidity: 65%
Barometer: 29.91 inHg , 1012.9 hPa
Clouds: Few Clouds
Visibility: 10 miles , 16 km
Cloud details: Few Clouds 9000 ft
2020/05/29 22:51 KNYC 292251Z AUTO 10SM FEW090 26/19 A2991 RMK AO2 SLP119 T02560194 $
 
KCDW - Caldwell, New Jersey, USA
Distance from station: WNW 10mi, 17km
Updated: 05/29/2020 7:18pm
Haze, Overcast
Haze, Overcast
 Wind from WNW
Wind: WNW 15 mph , 24 km/h, Gust: 22 mph , 35 km/h
Temperature: 77°F , 25°C
Dew Point: 63°F , 17°C
Humidity: 61%
Barometer: 29.90 inHg , 1012.5 hPa
Summary: Haze
Clouds: Overcast
Visibility: 6 miles , 10 km
Cloud details: Few Clouds 4100 ft
Mostly cloudy 6500 ft
Overcast 9500 ft
2020/05/29 23:18 KCDW 292318Z AUTO 30013G19KT 6SM HZ FEW041 BKN065 OVC095 25/17 A2990 RMK AO2 WSHFT 2258 LTG DSNT N T02500167
KLGA - Nyc/La Guardia, New York, USA
Distance from station: ESE 12mi, 19km
Updated: 05/29/2020 6:51pm
Mostly cloudy
Mostly cloudy
 Wind from S
Wind: S 10 mph , 17 km/h
Temperature: 75°F , 24°C
Dew Point: 64°F , 18°C
Humidity: 69%
Barometer: 29.88 inHg , 1011.9 hPa
Clouds: Mostly cloudy
Visibility: 10 miles , 16 km
Cloud details: Few Clouds 3500 ft
Partly cloudy 14000 ft
Mostly cloudy 25000 ft
2020/05/29 22:51 KLGA 292251Z 18009KT 10SM FEW035 SCT140 BKN250 24/18 A2988 RMK AO2 SLP118 TCU DSNT W-DSNT NW T02440183
 
KEWR - Newark, New Jersey, USA
Distance from station: SSW 12mi, 20km
Updated: 05/29/2020 6:51pm
Mostly cloudy
Mostly cloudy
 Wind from S
Wind: S 15 mph , 24 km/h
Temperature: 82°F , 28°C
Heat Index: 86°F , 30°C
Dew Point: 70°F , 21°C
Humidity: 66%
Barometer: 29.87 inHg , 1011.5 hPa
Clouds: Mostly cloudy
Visibility: 10 miles , 16 km
Cloud details: Few Clouds 3800 ft
Few Clouds 5500 ft
Partly cloudy 12000 ft
Mostly cloudy 20000 ft
Mostly cloudy 25000 ft
2020/05/29 22:51 KEWR 292251Z 19013KT 10SM FEW038TCU FEW055 SCT120 BKN200 BKN250 28/21 A2987 RMK AO2 SLP115 TCU SW T02830211
KMMU - Morristown Muni, New Jersey, USA
Distance from station: WSW 18mi, 29km
Updated: 05/29/2020 2:45pm
NOT Current
Mostly cloudy
Mostly cloudy
 Wind from SSW
Wind: SSW 14 mph , 22 km/h, Gust: 22 mph , 35 km/h
Temperature: 82°F , 28°C
Heat Index: 87°F , 31°C
Dew Point: 73°F , 23°C
Humidity: 74%
Barometer: 29.93 inHg , 1013.5 hPa
Clouds: Mostly cloudy
Visibility: 10 miles , 16 km
Cloud details: Partly cloudy 2900 ft
Partly cloudy 3600 ft
Mostly cloudy 6000 ft
2020/05/29 18:45 KMMU 291845Z 21012G19KT 10SM SCT029 SCT036 BKN060 28/23 A2993
 
KJFK - Nyc/Jfk Arpt, New York, USA
Distance from station: SE 23mi, 36km
Updated: 05/29/2020 6:51pm
Nearby fog, Mostly cloudy
Nearby fog, Mostly cloudy
 Wind from S
Wind: S 22 mph , 35 km/h
Temperature: 66°F , 19°C
Dew Point: 63°F , 17°C
Humidity: 88%
Barometer: 29.92 inHg , 1013.2 hPa
Summary: Nearby Fog
Clouds: Mostly cloudy
Visibility: 10 miles , 16 km
Cloud details: Few Clouds 500 ft
Few Clouds 3600 ft
Partly cloudy 10000 ft
Mostly cloudy 25000 ft
2020/05/29 22:51 KJFK 292251Z 18019KT 10SM VCFG FEW005 FEW036 SCT100 BKN250 19/17 A2992 RMK AO2 PK WND 18028/2159 SLP130 TCU DSNT NW VCFG SE-S T01890172
KHPN - White Plains, New York, USA
Distance from station: NE 25mi, 40km
Updated: 05/29/2020 6:56pm
Clear
Clear
 Wind from S
Wind: S 14 mph , 22 km/h
Temperature: 73°F , 23°C
Dew Point: 66°F , 19°C
Humidity: 78%
Barometer: 29.90 inHg , 1012.5 hPa
Clouds: Clear
Visibility: 10 miles , 16 km
2020/05/29 22:56 KHPN 292256Z 17012KT 10SM CLR 23/19 A2990 RMK AO2 SLP119 T02280194
 
KSMQ - Somerville, New Jersey, USA
Distance from station: WSW 34mi, 55km
Updated: 05/29/2020 6:53pm
Mostly cloudy
Mostly cloudy
 Wind from WNW
Wind: WNW 12 mph , 19 km/h, Gust: 23 mph , 37 km/h
Temperature: 75°F , 24°C
Dew Point: 63°F , 17°C
Humidity: 65%
Barometer: 29.89 inHg , 1012.2 hPa
Clouds: Mostly cloudy
Visibility: 10 miles , 16 km
Cloud details: Few Clouds 4100 ft
Partly cloudy 4800 ft
Mostly cloudy 6000 ft
2020/05/29 22:53 KSMQ 292253Z AUTO 29010G20KT 270V340 10SM FEW041 SCT048 BKN060 24/17 A2989 RMK AO2 SLP120 T02440167
K12N - Andover, New Jersey, USA
Distance from station: WNW 36mi, 57km
Updated: 05/29/2020 6:54pm

 Wind from SE
Wind: SE 3 mph , 6 km/h
Temperature: 68°F , 20°C
Dew Point: 64°F , 18°C
Humidity: 88%
Barometer: 29.94 inHg , 1013.9 hPa
2020/05/29 22:54 K12N 292254Z AUTO 14003KT 20/18 A2994 RMK AO1 SLP131 P0003 T02000183
 
KFRG - Farmingdale, New York, USA
Distance from station: ESE 36mi, 58km
Updated: 05/29/2020 7:27pm
Mostly cloudy
Mostly cloudy
 Wind from SSW
Wind: SSW 18 mph , 30 km/h
Temperature: 68°F , 20°C
Dew Point: 63°F , 17°C
Humidity: 83%
Barometer: 29.92 inHg , 1013.2 hPa
Clouds: Mostly cloudy
Visibility: 10 miles , 16 km
Cloud details: Mostly cloudy 500 ft
2020/05/29 23:27 KFRG 292327Z AUTO 20016KT 10SM BKN005 20/17 A2992 RMK AO2 T02000172
KFWN - Sussex, New Jersey, USA
Distance from station: NW 37mi, 60km
Updated: 05/29/2020 7:19pm
Light rain, Mist, Mostly cloudy
Light rain, Mist, Mostly cloudy
 Wind from varies
Wind: varies 3 mph , 6 km/h
Temperature: 68°F , 20°C
Dew Point: 64°F , 18°C
Humidity: 88%
Barometer: 29.92 inHg , 1013.2 hPa
Summary: Light rain, Mist
Clouds: Mostly cloudy
Visibility: 5 miles , 8 km
Cloud details: Mostly cloudy 11000 ft
2020/05/29 23:19 KFWN 292319Z AUTO VRB03KT 5SM -RA BR BKN110 20/18 A2992 RMK AO2 LTG DSNT E PRESFR P0005 T02000178 $
 
KSWF - Newburgh/Stewart, New York, USA
Distance from station: 0 45mi, 72km
Updated: 05/29/2020 7:05pm
Rain, Mist, Mostly cloudy
Rain, Mist, Mostly cloudy
 Wind from WSW
Wind: WSW 18 mph , 30 km/h, Gust: 32 mph , 52 km/h
Temperature: 73°F , 23°C
Dew Point: 68°F , 20°C
Humidity: 83%
Barometer: 29.90 inHg , 1012.5 hPa
Summary: Rain, Mist
Clouds: Mostly cloudy
Visibility: 4 miles , 6 km
Cloud details: Mostly cloudy 2000 ft
2020/05/29 23:05 KSWF 292305Z 25016G28KT 4SM RA BR BKN020 23/20 A2990
KMGJ - Montgomery, New York, USA
Distance from station: NNW 47mi, 75km
Updated: 05/29/2020 7:23pm
Light rain, Partly cloudy
Light rain, Partly cloudy
 Wind from SW
Wind: SW 9 mph , 15 km/h
Temperature: 70°F , 21°C
Dew Point: 66°F , 19°C
Humidity: 88%
Barometer: 29.89 inHg , 1012.2 hPa
Summary: Light rain
Clouds: Partly cloudy
Visibility: 10 miles , 16 km
Cloud details: Partly cloudy 11000 ft
2020/05/29 23:23 KMGJ 292323Z AUTO 22008KT 10SM -RA SCT110 21/19 A2989 RMK AO2 LTG DSNT NE TSE04 P0002 T02060194
 
KBLM - Belmar/Farmdale, New Jersey, USA
Distance from station: S 47mi, 76km
Updated: 05/29/2020 6:56pm
Clear
Clear
 Wind from S
Wind: S 13 mph , 20 km/h, Gust: 18 mph , 30 km/h
Temperature: 79°F , 26°C
Dew Point: 72°F , 22°C
Humidity: 79%
Barometer: 29.92 inHg , 1013.2 hPa
Clouds: Clear
Visibility: 10 miles , 16 km
2020/05/29 22:56 KBLM 292256Z AUTO 19011G16KT 10SM CLR 26/22 A2992 RMK AO2 SLP131 T02610222
KDXR - Danbury, Connecticut, USA
Distance from station: NE 47mi, 76km
Updated: 05/29/2020 6:53pm
Clear
Clear
 Wind from S
Wind: S 10 mph , 17 km/h, Gust: 20 mph , 31 km/h
Temperature: 75°F , 24°C
Dew Point: 68°F , 20°C
Humidity: 78%
Barometer: 29.91 inHg , 1012.9 hPa
Clouds: Clear
Visibility: 10 miles , 16 km
2020/05/29 22:53 KDXR 292253Z 17009G17KT 10SM CLR 24/20 A2991 RMK AO2 SLP123 T02390200
 
KISP - Islip, New York, USA
Distance from station: E 52mi, 83km
Updated: 05/29/2020 5:56pm
NOT Current
Mist, Overcast
Mist, Overcast
 Wind from S
Wind: S 15 mph , 24 km/h, Gust: 22 mph , 35 km/h
Temperature: 66°F , 19°C
Dew Point: 64°F , 18°C
Humidity: 94%
Barometer: 29.94 inHg , 1013.9 hPa
Summary: Mist
Clouds: Overcast
Visibility: 6 miles , 10 km
Cloud details: Overcast 300 ft
2020/05/29 21:56 KISP 292156Z 19013G19KT 6SM BR OVC003 19/18 A2994 RMK AO2 SLP139 T01890178
KBDR - Bridgeport, Connecticut, USA
Distance from station: ENE 54mi, 87km
Updated: 05/29/2020 6:52pm
Mostly cloudy
Mostly cloudy
 Wind from SSW
Wind: SSW 13 mph , 20 km/h
Temperature: 70°F , 21°C
Dew Point: 64°F , 18°C
Humidity: 83%
Barometer: 29.91 inHg , 1012.9 hPa
Clouds: Mostly cloudy
Visibility: 10 miles , 16 km
Cloud details: Mostly cloudy 6000 ft
2020/05/29 22:52 KBDR 292252Z 21011KT 10SM BKN060 21/18 A2991 RMK AO2 SLP129 T02110178
 
KTTN - Trenton, New Jersey, USA
Distance from station: SW 55mi, 88km
Updated: 05/29/2020 7:27pm
Mostly cloudy
Mostly cloudy
 Wind from NW
Wind: NW 9 mph , 15 km/h
Temperature: 75°F , 24°C
Dew Point: 63°F , 17°C
Humidity: 65%
Barometer: 29.90 inHg , 1012.5 hPa
Clouds: Mostly cloudy
Visibility: 10 miles , 16 km
Cloud details: Mostly cloudy 2900 ft
Mostly cloudy 5000 ft
2020/05/29 23:27 KTTN 292327Z 32008KT 10SM BKN029 BKN050 24/17 A2990 RMK AO2 T02440167
KPOU - Poughkeepsie, New York, USA
Distance from station: N 55mi, 89km
Updated: 05/29/2020 7:36pm
Light rain, Overcast
Light rain, Overcast
 Wind from S
Wind: S 5 mph , 7 km/h
Temperature: 72°F , 22°C
Dew Point: 68°F , 20°C
Humidity: 88%
Barometer: 29.87 inHg , 1011.5 hPa
Summary: Light rain
Clouds: Overcast
Visibility: 8 miles , 13 km
Cloud details: Partly cloudy 4100 ft
Partly cloudy 7500 ft
Overcast 10000 ft
2020/05/29 23:36 KPOU 292336Z AUTO 17004KT 8SM -RA SCT041 SCT075 OVC100 22/20 A2987 RMK AO2 LTG DSNT N RAE02B16 PRESFR P0014 T02220200
 
KNEL - Lakehurst Nas, New Jersey, USA
Distance from station: SSW 59mi, 95km
Updated: 05/29/2020 7:00pm
Clear
Clear
 Wind from SSW
Wind: SSW 7 mph , 11 km/h
Barometer: 29.90 inHg , 1012.5 hPa
Clouds: Clear
Visibility: 10 miles , 16 km
2020/05/29 23:00 KNEL 292300Z AUTO 20006KT 10SM CLR A2990 RMK AO2 SLPNO $
KWRI - Wrightst/Mcguire, New Jersey, USA
Distance from station: SSW 63mi, 102km
Updated: 05/29/2020 6:56pm
Few Clouds
Few Clouds
 Wind from SW
Wind: SW 14 mph , 22 km/h
Temperature: 81°F , 27°C
Heat Index: 85°F , 29°C
Dew Point: 72°F , 22°C
Humidity: 74%
Barometer: 29.91 inHg , 1012.9 hPa
Clouds: Few Clouds
Visibility: 10 miles , 16 km
Cloud details: Few Clouds 2800 ft
2020/05/29 22:56 KWRI 292256Z AUTO 22012KT 10SM FEW028 27/22 A2991 RMK AO2 SLP127 T02690216 $
 
KHWV - Shirley, New York, USA
Distance from station: E 64mi, 103km
Updated: 05/29/2020 7:27pm
Mist, Overcast
Mist, Overcast
 Wind from SSW
Wind: SSW 14 mph , 22 km/h, Gust: 23 mph , 37 km/h
Temperature: 64°F , 18°C
Dew Point: 61°F , 16°C
Humidity: 88%
Barometer: 29.95 inHg , 1014.2 hPa
Summary: Mist
Clouds: Overcast
Visibility: 3/4 mile , 1.2 km
Cloud details: Overcast 200 ft
2020/05/29 23:27 KHWV 292327Z AUTO 20012G20KT 3/4SM BR OVC002 18/16 A2995 RMK AO2 T01780161 TSNO
KMJX - Toms River, New Jersey, USA
Distance from station: S 64mi, 104km
Updated: 05/29/2020 6:56pm
Clear
Clear
 Wind from S
Wind: S 10 mph , 17 km/h, Gust: 16 mph , 26 km/h
Temperature: 77°F , 25°C
Dew Point: 70°F , 21°C
Humidity: 79%
Barometer: 29.92 inHg , 1013.2 hPa
Clouds: Clear
Visibility: 10 miles , 16 km
2020/05/29 22:56 KMJX 292256Z AUTO 19009G14KT 10SM CLR 25/21 A2992 RMK AO2 SLP136 T02500206
 
KDYL - Doylestown, Pennsylvania, USA
Distance from station: SW 65mi, 104km
Updated: 05/29/2020 7:09pm
Light rain, Overcast
Light rain, Overcast
 Wind from W
Wind: W 6 mph , 9 km/h
Temperature: 70°F , 21°C
Dew Point: 64°F , 18°C
Humidity: 83%
Barometer: 29.92 inHg , 1013.2 hPa
Summary: Light rain
Clouds: Overcast
Visibility: 10 miles , 16 km
Cloud details: Partly cloudy 3600 ft
Mostly cloudy 5000 ft
Overcast 10000 ft
2020/05/29 23:09 KDYL 292309Z AUTO 26005KT 10SM -RA SCT036 BKN050 OVC100 21/18 A2992 RMK AO2 P0002 T02110183
KOXC - Oxford/Waterbury, Connecticut, USA
Distance from station: NE 65mi, 105km
Updated: 05/29/2020 6:51pm
Mostly cloudy
Mostly cloudy
 Wind from S
Wind: S 12 mph , 19 km/h, Gust: 17 mph , 28 km/h
Temperature: 72°F , 22°C
Dew Point: 70°F , 21°C
Humidity: 94%
Barometer: 29.93 inHg , 1013.5 hPa
Clouds: Mostly cloudy
Visibility: 10 miles , 16 km
Cloud details: Mostly cloudy 1400 ft
2020/05/29 22:51 KOXC 292251Z 19010G15KT 10SM BKN014 22/21 A2993 RMK AO2 SLP141 T02220206
 
KMSV - Monticello, New York, USA
Distance from station: NNW 69mi, 111km
Updated: 05/29/2020 6:56pm
Light rain, Overcast
Light rain, Overcast
 Wind from varies
Wind: varies 7 mph , 11 km/h, Gust: 18 mph , 30 km/h
Temperature: 66°F , 19°C
Dew Point: 63°F , 17°C
Humidity: 88%
Barometer: 29.93 inHg , 1013.5 hPa
Summary: Light rain
Clouds: Overcast
Visibility: 10 miles , 16 km
Cloud details: Few Clouds 7000 ft
Mostly cloudy 9000 ft
Overcast 11000 ft
2020/05/29 22:56 KMSV 292256Z AUTO VRB06G16KT 10SM -RA FEW070 BKN090 OVC110 19/17 A2993 RMK AO2 PK WND 21026/2222 LTG DSNT E AND SE RAB00 SLP129 P0006 T01890172
KHVN - New Haven/Tweed, Connecticut, USA
Distance from station: ENE 70mi, 112km
Updated: 05/29/2020 6:53pm
Overcast
Overcast
 Wind from S
Wind: S 7 mph , 11 km/h
Temperature: 66°F , 19°C
Dew Point: 66°F , 19°C
Humidity: 100%
Barometer: 29.93 inHg , 1013.5 hPa
Clouds: Overcast
Visibility: 9 miles , 14 km
Cloud details: Overcast 600 ft
2020/05/29 22:53 KHVN 292253Z 18006KT 9SM OVC006 19/19 A2993 RMK AO2 SLP135 T01940189
 
KMPO - Mt. Pocono, Pennsylvania, USA
Distance from station: WNW 70mi, 113km
Updated: 05/29/2020 6:53pm
Light rain, Overcast
Light rain, Overcast
 Wind from S
Wind: S 12 mph , 19 km/h
Temperature: 64°F , 18°C
Dew Point: 59°F , 15°C
Humidity: 83%
Barometer: 29.93 inHg , 1013.5 hPa
Summary: Light rain
Clouds: Overcast
Visibility: 10 miles , 16 km
Cloud details: Few Clouds 8500 ft
Overcast 11000 ft
2020/05/29 22:53 KMPO 292253Z AUTO 18010KT 10SM -RA FEW085 OVC110 18/15 A2993 RMK AO2 SLP126 P0011 T01780150
KPNE - Philadelphia/Ne, Pennsylvania, USA
Distance from station: SW 72mi, 116km
Updated: 05/29/2020 7:06pm
Few Clouds
Few Clouds
 Wind from S
Wind: S 8 mph , 13 km/h
Temperature: 82°F , 28°C
Heat Index: 86°F , 30°C
Dew Point: 72°F , 22°C
Humidity: 70%
Barometer: 29.91 inHg , 1012.9 hPa
Clouds: Few Clouds
Visibility: 10 miles , 16 km
Cloud details: Few Clouds 3000 ft
2020/05/29 23:06 KPNE 292306Z AUTO 19007KT 10SM FEW030 28/22 A2991 RMK AO2 T02830217
 
KABE - Allentown, Pennsylvania, USA
Distance from station: W 73mi, 117km
Updated: 05/29/2020 6:51pm
Mostly cloudy
Mostly cloudy
 Wind from calm
Wind: Calm
Temperature: 68°F , 20°C
Dew Point: 64°F , 18°C
Humidity: 88%
Barometer: 29.90 inHg , 1012.5 hPa
Clouds: Mostly cloudy
Visibility: 10 miles , 16 km
Cloud details: Mostly cloudy 10000 ft
Mostly cloudy 12000 ft
2020/05/29 22:51 KABE 292251Z 00000KT 10SM BKN100 BKN120 20/18 A2990 RMK AO2 RAE51 TSE04 SLP121 P0005 T02000183
KUKT - Quakertown Arp, Pennsylvania, USA
Distance from station: WSW 74mi, 119km
Updated: 05/29/2020 7:35pm
Few Clouds
Few Clouds
 Wind from calm
Wind: Calm
Temperature: 68°F , 20°C
Dew Point: 68°F , 20°C
Humidity: 100%
Barometer: 29.92 inHg , 1013.2 hPa
Clouds: Few Clouds
Visibility: 10 miles , 16 km
Cloud details: Few Clouds 11000 ft
2020/05/29 23:35 KUKT 292335Z AUTO 00000KT 10SM FEW110 20/20 A2992 RMK A01
 
KVAY - Mount Holly, New Jersey, USA
Distance from station: SSW 75mi, 120km
Updated: 05/29/2020 6:54pm

 
Barometer: 29.90 inHg , 1012.5 hPa
2020/05/29 22:54 KVAY 292254Z AUTO A2990 RMK AO2 LTG DSNT NW SLPNO PWINO $
KXLL - Allentown Queen, Pennsylvania, USA
Distance from station: WSW 76mi, 122km
Updated: 05/29/2020 7:35pm
Mostly cloudy
Mostly cloudy
 Wind from SSE
Wind: SSE 3 mph , 6 km/h
Temperature: 70°F , 21°C
Dew Point: 66°F , 19°C
Humidity: 88%
Barometer: 29.92 inHg , 1013.2 hPa
Clouds: Mostly cloudy
Visibility: 10 miles , 16 km
Cloud details: Mostly cloudy 9000 ft
Mostly cloudy 11000 ft
2020/05/29 23:35 KXLL 292335Z AUTO 15003KT 10SM BKN090 BKN110 21/19 A2992 RMK AO2 P0002
 
KFOK - Westhampton Beac, New York, USA
Distance from station: E 77mi, 124km
Updated: 05/29/2020 6:53pm
Mist, Overcast
Mist, Overcast
 Wind from SW
Wind: SW 12 mph , 19 km/h, Gust: 24 mph , 39 km/h
Temperature: 63°F , 17°C
Dew Point: 63°F , 17°C
Humidity: 100%
Barometer: 29.98 inHg , 1015.2 hPa
Summary: Mist
Clouds: Overcast
Visibility: 1/2 mile , 0.8 km
Cloud details: Overcast 200 ft
2020/05/29 22:53 KFOK 292253Z 22010G21KT 1/2SM BR OVC002 17/17 A2998 RMK AO2 SFC VIS 1 SLP151 T01720167
KLOM - Philly Wings F, Pennsylvania, USA
Distance from station: SW 79mi, 128km
Updated: 05/29/2020 7:35pm
Mostly cloudy
Mostly cloudy
 Wind from NNW
Wind: NNW 5 mph , 7 km/h
Temperature: 70°F , 21°C
Dew Point: 66°F , 19°C
Humidity: 88%
Barometer: 29.91 inHg , 1012.9 hPa
Clouds: Mostly cloudy
Visibility: 10 miles , 16 km
Cloud details: Partly cloudy 2800 ft
Mostly cloudy 3400 ft
Mostly cloudy 4900 ft
2020/05/29 23:35 KLOM 292335Z AUTO 33004KT 10SM SCT028 BKN034 BKN049 21/19 A2991 RMK AO2 T02130190
 
KMMK - Meriden, Connecticut, USA
Distance from station: NE 80mi, 128km
Updated: 05/29/2020 6:53pm
Mostly cloudy
Mostly cloudy
 Wind from S
Wind: S 15 mph , 24 km/h, Gust: 20 mph , 31 km/h
Temperature: 72°F , 22°C
Dew Point: 66°F , 19°C
Humidity: 83%
Barometer: 29.91 inHg , 1012.9 hPa
Clouds: Mostly cloudy
Visibility: 10 miles , 16 km
Cloud details: Mostly cloudy 1200 ft
2020/05/29 22:53 KMMK 292253Z AUTO 18013G17KT 10SM BKN012 22/19 A2991 RMK AO2 SLP128 T02170189
KPTW - Pottstown, Pennsylvania, USA
Distance from station: WSW 88mi, 141km
Updated: 05/29/2020 6:54pm
Light rain, Overcast
Light rain, Overcast
 Wind from WNW
Wind: WNW 5 mph , 7 km/h
Temperature: 66°F , 19°C
Dew Point: 66°F , 19°C
Humidity: 100%
Barometer: 29.92 inHg , 1013.2 hPa
Summary: Light rain
Clouds: Overcast
Visibility: 7 miles , 11 km
Cloud details: Few Clouds 6500 ft
Partly cloudy 9000 ft
Overcast 11000 ft
2020/05/29 22:54 KPTW 292254Z AUTO 30004KT 7SM -RA FEW065 SCT090 OVC110 19/19 A2992 RMK AO2 LTG DSNT E AND SW RAB08 SLP128 P0005 T01940189
 
KSNC - Chester, Connecticut, USA
Distance from station: ENE 90mi, 146km
Updated: 05/29/2020 7:35pm
Mist, Overcast
Mist, Overcast
 Wind from SSW
Wind: SSW 10 mph , 17 km/h, Gust: 17 mph , 28 km/h
Temperature: 66°F , 19°C
Dew Point: 66°F , 19°C
Humidity: 100%
Barometer: 29.94 inHg , 1013.9 hPa
Summary: Mist
Clouds: Overcast
Visibility: 5 miles , 8 km
Cloud details: Overcast 100 ft
2020/05/29 23:35 KSNC 292335Z AUTO 20009G15KT 5SM BR OVC001 19/19 A2994 RMK AO2
KPHL - Philadelphia, Pennsylvania, USA
Distance from station: SW 91mi, 146km
Updated: 05/29/2020 6:54pm
Overcast
Overcast
 Wind from S
Wind: S 10 mph , 17 km/h
Temperature: 81°F , 27°C
Heat Index: 85°F , 29°C
Dew Point: 70°F , 21°C
Humidity: 70%
Barometer: 29.89 inHg , 1012.2 hPa
Clouds: Overcast
Visibility: 10 miles , 16 km
Cloud details: Partly cloudy 4500 ft
Mostly cloudy 15000 ft
Overcast 25000 ft
2020/05/29 22:54 KPHL 292254Z 19009KT 10SM SCT045 BKN150 OVC250 27/21 A2989 RMK AO2 LTG DSNT N SLP121 T02720211
 
KAVP - Avoca/Wilkes B., Pennsylvania, USA
Distance from station: WNW 91mi, 147km
Updated: 05/29/2020 6:54pm
Clear
Clear
 Wind from W
Wind: W 8 mph , 13 km/h
Temperature: 72°F , 22°C
Dew Point: 63°F , 17°C
Humidity: 73%
Barometer: 29.88 inHg , 1011.9 hPa
Clouds: Clear
Visibility: 10 miles , 16 km
2020/05/29 22:54 KAVP 292254Z 26007KT 10SM CLR 22/17 A2988 RMK AO2 RAE11 SLP107 P0000 T02220167
KHFD - Hartford/Brainar, Connecticut, USA
Distance from station: NE 96mi, 155km
Updated: 05/29/2020 6:53pm
Overcast
Overcast
 Wind from S
Wind: S 12 mph , 19 km/h
Temperature: 73°F , 23°C
Dew Point: 66°F , 19°C
Humidity: 78%
Barometer: 29.90 inHg , 1012.5 hPa
Clouds: Overcast
Visibility: 10 miles , 16 km
Cloud details: Overcast 1500 ft
2020/05/29 22:53 KHFD 292253Z AUTO 18010KT 10SM OVC015 23/19 A2990 RMK AO2 SLP126 T02280194
 
KHTO - East Hampton, New York, USA
Distance from station: E 96mi, 155km
Updated: 05/29/2020 7:35pm
Fog, Overcast
Fog, Overcast
 Wind from SSW
Wind: SSW 8 mph , 13 km/h
Temperature: 61°F , 16°C
Dew Point: 61°F , 16°C
Humidity: 100%
Barometer: 29.97 inHg , 1014.9 hPa
Summary: Fog
Clouds: Overcast
Visibility: 1/2 mile , 0.8 km
Cloud details: Overcast 300 ft
2020/05/29 23:35 KHTO 292335Z AUTO 21007KT 1/2SM FG OVC003 16/16 A2997 RMK AO2 T01620159
KACY - Atlantic City, New Jersey, USA
Distance from station: SSW 99mi, 160km
Updated: 05/29/2020 6:54pm
Partly cloudy
Partly cloudy
 Wind from S
Wind: S 14 mph , 22 km/h, Gust: 20 mph , 31 km/h
Temperature: 73°F , 23°C
Dew Point: 66°F , 19°C
Humidity: 78%
Barometer: 29.93 inHg , 1013.5 hPa
Clouds: Partly cloudy
Visibility: 10 miles , 16 km
Cloud details: Few Clouds 10000 ft
Partly cloudy 12000 ft
2020/05/29 22:54 KACY 292254Z 18012G17KT 10SM FEW100 SCT120 23/19 A2993 RMK AO2 SLP134 T02280189